Time;durP1;ratioP1;P1;durP2;ratioP2;P2;SDS_P1;SDS_P2;PMS_P1;PMS_P2;Temp;Humidity;BMP_temperature;BMP_pressure;BME280_temperature;BME280_humidity;BME280_pressure;Samples;Min_cycle;Max_cycle;Signal;HPM_P1;HPM_P2
2023/10/08 00:01:35;;;;;;;9.90;5.47;;;;;;;18.51;58.94;102191.25;5095857;28;20043;-74
2023/10/08 00:04:04;;;;;;;12.65;5.13;;;;;;;18.51;58.76;102207.22;5094345;28;20028;-75
2023/10/08 00:06:30;;;;;;;10.63;5.60;;;;;;;18.49;58.78;102212.31;5096953;28;20020;-74
2023/10/08 00:08:59;;;;;;;9.40;5.25;;;;;;;18.43;58.67;102211.44;5102835;28;20042;-74
2023/10/08 00:11:31;;;;;;;11.00;5.70;;;;;;;18.45;58.78;102211.16;5114978;28;20027;-75
2023/10/08 00:13:56;;;;;;;11.85;5.45;;;;;;;18.46;58.52;102213.69;5101987;28;20019;-75
2023/10/08 00:16:22;;;;;;;9.30;5.32;;;;;;;18.41;58.61;102213.66;5113716;28;20750;-75
2023/10/08 00:18:50;;;;;;;9.82;4.80;;;;;;;18.38;58.60;102215.03;5098617;28;20103;-75
2023/10/08 00:21:25;;;;;;;10.73;5.28;;;;;;;18.38;58.92;102212.22;5097287;28;20032;-74
2023/10/08 00:24:02;;;;;;;11.88;5.30;;;;;;;18.37;58.70;102215.34;5094934;28;20052;-75
2023/10/08 00:26:29;;;;;;;11.02;5.25;;;;;;;18.33;58.73;102220.66;5095012;28;20032;-75
2023/10/08 00:28:56;;;;;;;12.88;5.72;;;;;;;18.30;58.71;102215.56;5095894;28;20031;-75
2023/10/08 00:31:25;;;;;;;11.45;5.20;;;;;;;18.30;58.96;102218.38;5094263;28;20032;-74
2023/10/08 00:33:51;;;;;;;11.80;5.45;;;;;;;18.24;58.88;102221.44;5092486;28;20035;-75
2023/10/08 00:36:20;;;;;;;14.10;6.18;;;;;;;18.28;58.72;102225.41;5098584;28;20039;-75
2023/10/08 00:38:58;;;;;;;12.45;5.95;;;;;;;18.15;59.04;102224.75;5106206;28;20024;-75
2023/10/08 00:41:28;;;;;;;13.23;5.47;;;;;;;18.16;59.11;102220.00;5099818;28;20024;-75
2023/10/08 00:43:56;;;;;;;11.07;5.40;;;;;;;18.13;59.19;102227.00;5092500;28;21312;-75
2023/10/08 00:46:24;;;;;;;10.98;4.80;;;;;;;18.22;59.24;102224.50;5113696;28;20034;-76
2023/10/08 00:48:54;;;;;;;10.77;5.25;;;;;;;18.16;59.45;102225.63;5094249;28;20051;-76
2023/10/08 00:53:58;;;;;;;11.32;6.18;;;;;;;18.11;59.50;102232.03;5093451;28;20036;-75
2023/10/08 00:56:46;;;;;;;11.10;5.13;;;;;;;18.08;59.74;102234.56;5095588;28;20042;-75
2023/10/08 00:59:15;;;;;;;9.82;5.18;;;;;;;18.11;59.48;102228.38;5097648;28;20027;-75
2023/10/08 01:01:45;;;;;;;9.70;4.97;;;;;;;18.05;59.62;102240.69;5097163;28;20020;-75
2023/10/08 01:04:15;;;;;;;11.88;5.93;;;;;;;18.03;59.98;102237.31;5092172;28;20028;-75
2023/10/08 01:06:41;;;;;;;16.15;5.60;;;;;;;17.95;59.83;102227.41;5092678;28;20028;-75
2023/10/08 01:09:18;;;;;;;12.18;5.75;;;;;;;17.97;59.96;102216.75;5103444;28;20043;-75
2023/10/08 01:11:50;;;;;;;9.60;5.47;;;;;;;17.95;60.08;102215.34;5093855;28;20107;-75
2023/10/08 01:14:20;;;;;;;9.88;5.80;;;;;;;17.93;60.27;102209.16;5094668;28;20077;-75
2023/10/08 01:16:47;;;;;;;11.20;5.68;;;;;;;17.86;60.24;102198.97;5100605;28;20042;-75
2023/10/08 01:19:19;;;;;;;13.60;5.72;;;;;;;17.90;60.46;102214.19;5109469;28;20028;-75
2023/10/08 01:21:45;;;;;;;11.05;5.53;;;;;;;17.86;60.73;102221.44;5094205;28;20096;-75
2023/10/08 01:24:14;;;;;;;11.63;5.60;;;;;;;17.81;60.62;102213.00;5100904;28;20056;-75
2023/10/08 01:26:39;;;;;;;10.73;5.97;;;;;;;17.77;60.78;102209.03;5100137;28;20036;-75
2023/10/08 01:29:09;;;;;;;11.60;5.43;;;;;;;17.77;61.02;102213.81;5092574;28;20169;-75
2023/10/08 01:31:36;;;;;;;9.85;5.75;;;;;;;17.71;61.19;102197.97;5092934;28;20138;-74
2023/10/08 01:34:04;;;;;;;12.50;5.43;;;;;;;17.74;61.03;102192.69;5092965;28;20073;-75
2023/10/08 01:36:31;;;;;;;8.93;5.28;;;;;;;17.77;61.21;102194.16;5105229;28;20035;-75
2023/10/08 01:38:57;;;;;;;10.90;6.13;;;;;;;17.68;61.20;102193.75;5091448;28;20028;-75
2023/10/08 01:41:30;;;;;;;10.43;5.82;;;;;;;17.70;61.35;102185.91;5092331;28;20547;-75
2023/10/08 01:43:59;;;;;;;12.60;5.40;;;;;;;17.65;61.37;102185.88;5094852;28;20035;-75
2023/10/08 01:46:28;;;;;;;12.10;5.82;;;;;;;17.64;61.30;102185.03;5091775;28;20024;-75
2023/10/08 01:49:00;;;;;;;10.60;5.63;;;;;;;17.62;61.27;102189.22;5100985;28;20038;-75
2023/10/08 01:51:36;;;;;;;9.23;5.65;;;;;;;17.65;61.32;102197.13;5109710;28;20030;-74
2023/10/08 01:54:02;;;;;;;11.38;6.00;;;;;;;17.59;61.20;102203.78;5103874;28;20023;-75
2023/10/08 01:56:28;;;;;;;11.85;5.97;;;;;;;17.56;61.66;102199.53;5095339;28;20748;-75
2023/10/08 01:58:53;;;;;;;9.93;5.45;;;;;;;17.57;61.71;102212.47;5109178;28;20024;-75
2023/10/08 02:01:21;;;;;;;10.38;5.80;;;;;;;17.53;61.81;102213.28;5099908;28;20391;-75
2023/10/08 02:03:49;;;;;;;8.80;5.90;;;;;;;17.49;61.82;102227.00;5102052;28;20032;-75
2023/10/08 02:06:15;;;;;;;12.48;5.80;;;;;;;17.55;61.63;102225.94;5097208;28;20031;-75
2023/10/08 02:08:41;;;;;;;9.52;5.40;;;;;;;17.53;61.84;102219.75;5106175;28;20039;-75
2023/10/08 02:11:08;;;;;;;8.98;5.72;;;;;;;17.49;61.96;102223.31;5106768;28;20063;-74
2023/10/08 02:13:34;;;;;;;11.52;5.47;;;;;;;17.50;62.00;102228.69;5099656;28;20031;-75
2023/10/08 02:16:00;;;;;;;10.23;6.18;;;;;;;17.49;61.87;102220.53;5095582;28;20490;-75
2023/10/08 02:18:25;;;;;;;10.75;6.00;;;;;;;17.43;62.09;102211.22;5108220;28;20035;-75
2023/10/08 02:20:51;;;;;;;11.25;6.10;;;;;;;17.41;62.14;102221.88;5093293;28;20042;-75
2023/10/08 02:23:18;;;;;;;15.63;6.20;;;;;;;17.45;62.25;102228.66;5103583;28;20028;-75
2023/10/08 02:25:44;;;;;;;13.00;6.10;;;;;;;17.39;62.25;102216.50;5100494;28;20431;-75
2023/10/08 02:28:15;;;;;;;9.75;5.88;;;;;;;17.39;62.14;102224.09;5091611;28;20035;-74
2023/10/08 02:30:43;;;;;;;10.40;5.93;;;;;;;17.32;62.34;102212.22;5109151;28;20034;-75
2023/10/08 02:33:15;;;;;;;15.00;6.22;;;;;;;17.34;62.28;102219.28;5097424;28;20371;-75
2023/10/08 02:35:44;;;;;;;;;;;;;;;17.56;61.81;102218.34;5104223;28;20471;-74
2023/10/08 02:38:18;;;;;;;11.98;5.90;;;;;;;17.40;62.13;102222.97;5095828;28;19965;-75
2023/10/08 02:40:47;;;;;;;8.90;5.95;;;;;;;17.35;62.41;102228.53;5107953;28;20037;-76
2023/10/08 02:43:17;;;;;;;11.98;5.55;;;;;;;17.40;62.15;102228.59;5101483;28;20060;-76
2023/10/08 02:45:47;;;;;;;12.90;6.10;;;;;;;17.35;62.29;102235.00;5101871;28;20047;-76
2023/10/08 02:48:13;;;;;;;12.40;5.85;;;;;;;17.30;62.46;102245.34;5098167;28;20035;-76
2023/10/08 02:50:42;;;;;;;11.32;5.85;;;;;;;17.40;62.42;102245.44;5102916;28;20027;-76
2023/10/08 02:53:10;;;;;;;12.95;5.60;;;;;;;17.32;62.50;102255.16;5098781;28;20072;-76
2023/10/08 02:55:43;;;;;;;10.50;5.80;;;;;;;17.27;62.91;102246.69;5104596;28;20024;-74
2023/10/08 02:58:14;;;;;;;12.63;5.82;;;;;;;17.31;62.81;102242.25;5107601;28;20382;-74
2023/10/08 03:00:42;;;;;;;9.18;5.70;;;;;;;17.29;62.84;102247.31;5097438;28;20107;-74
2023/10/08 03:03:15;;;;;;;11.25;5.60;;;;;;;17.30;62.80;102234.97;5106018;28;20028;-75
2023/10/08 03:05:41;;;;;;;11.32;5.60;;;;;;;17.24;63.12;102237.97;5100618;28;20031;-75
2023/10/08 03:08:10;;;;;;;15.07;6.15;;;;;;;17.23;63.05;102247.50;5103952;28;20085;-75
2023/10/08 03:10:41;;;;;;;12.80;6.53;;;;;;;17.25;63.11;102240.53;5106585;28;20035;-74
2023/10/08 03:13:09;;;;;;;11.27;6.25;;;;;;;17.22;63.24;102246.66;5094918;28;20031;-75
2023/10/08 03:15:46;;;;;;;12.38;5.82;;;;;;;17.28;63.28;102239.97;5101036;28;20412;-75
2023/10/08 03:18:14;;;;;;;10.05;5.85;;;;;;;17.25;63.43;102248.94;5105715;28;20370;-76
2023/10/08 03:20:46;;;;;;;10.63;5.85;;;;;;;17.25;63.38;102254.56;5094447;28;20422;-75
2023/10/08 03:23:34;;;;;;;11.15;6.50;;;;;;;17.24;63.49;102257.59;5104745;28;20081;-75
2023/10/08 03:26:01;;;;;;;14.07;6.38;;;;;;;17.21;63.50;102264.59;5100312;28;20032;-75
2023/10/08 03:28:29;;;;;;;14.55;6.00;;;;;;;17.22;63.37;102263.50;5095194;28;20028;-75
2023/10/08 03:31:13;;;;;;;13.45;6.43;;;;;;;17.17;63.88;102263.41;5105155;28;20485;-76
2023/10/08 03:33:39;;;;;;;19.17;6.65;;;;;;;17.20;63.66;102267.66;5109076;28;20035;-76
2023/10/08 03:36:14;;;;;;;13.98;6.47;;;;;;;17.14;63.73;102261.16;5109645;28;20043;-76
2023/10/08 03:38:49;;;;;;;11.48;5.80;;;;;;;17.15;63.84;102257.25;5096025;28;20092;-75
2023/10/08 03:41:18;;;;;;;10.77;5.70;;;;;;;17.11;63.89;102256.06;5102304;28;20039;-76
2023/10/08 03:43:53;;;;;;;11.38;6.03;;;;;;;17.15;63.82;102260.03;5104644;28;20089;-75
2023/10/08 03:46:21;;;;;;;11.70;5.70;;;;;;;17.16;63.92;102264.53;5104915;28;20100;-76
2023/10/08 03:48:49;;;;;;;12.52;5.85;;;;;;;17.14;63.85;102262.00;5104891;28;20040;-76
2023/10/08 03:51:19;;;;;;;14.75;5.80;;;;;;;17.15;63.76;102260.03;5094502;28;20035;-76
2023/10/08 03:54:15;;;;;;;15.18;6.55;;;;;;;17.11;63.89;102258.88;5092270;28;20775;-75
2023/10/08 03:56:45;;;;;;;14.27;6.47;;;;;;;17.13;63.74;102251.03;5094305;28;20024;-76
2023/10/08 03:59:20;;;;;;;13.68;6.00;;;;;;;17.10;63.86;102260.84;5094368;28;20071;-76
2023/10/08 04:01:48;;;;;;;12.93;6.35;;;;;;;17.10;63.74;102276.81;5095762;28;20103;-75
2023/10/08 04:04:14;;;;;;;13.10;5.68;;;;;;;17.10;63.87;102274.88;5098376;28;20027;-75
2023/10/08 04:06:48;;;;;;;12.63;5.95;;;;;;;17.03;63.80;102264.94;5100657;28;20046;-76
2023/10/08 04:09:23;;;;;;;11.55;5.88;;;;;;;17.05;63.87;102254.31;5097241;28;20043;-76
2023/10/08 04:11:56;;;;;;;13.07;5.78;;;;;;;17.03;63.82;102268.59;5106702;28;20426;-76
2023/10/08 04:14:24;;;;;;;13.32;6.03;;;;;;;17.04;63.75;102269.44;5105148;28;20020;-76
2023/10/08 04:16:53;;;;;;;14.00;5.85;;;;;;;17.05;63.66;102262.72;5100287;28;20073;-75
2023/10/08 04:19:21;;;;;;;14.40;5.95;;;;;;;17.06;63.70;102275.66;5099082;28;20518;-76
2023/10/08 04:21:53;;;;;;;13.18;6.10;;;;;;;17.03;63.61;102276.16;5101047;28;20554;-76
2023/10/08 04:24:20;;;;;;;13.00;6.13;;;;;;;17.00;63.89;102279.50;5093492;28;20072;-76
2023/10/08 04:26:46;;;;;;;14.45;5.45;;;;;;;16.98;63.92;102282.56;5093742;28;20032;-75
2023/10/08 04:29:16;;;;;;;11.75;6.20;;;;;;;16.98;64.28;102284.50;5111267;28;20093;-75
2023/10/08 04:31:46;;;;;;;9.05;5.82;;;;;;;16.95;64.21;102293.47;5097806;28;20027;-76
2023/10/08 04:34:22;;;;;;;13.07;5.90;;;;;;;16.96;64.15;102289.53;5094903;28;20773;-76
2023/10/08 04:37:04;;;;;;;13.07;6.50;;;;;;;16.93;64.50;102280.53;5093657;28;20601;-76
2023/10/08 04:39:32;;;;;;;12.85;6.10;;;;;;;16.94;64.47;102287.00;5094218;28;20032;-76
2023/10/08 04:42:05;;;;;;;12.23;5.22;;;;;;;16.95;64.42;102287.84;5092627;28;20486;-76
2023/10/08 04:44:31;;;;;;;11.88;5.90;;;;;;;16.94;64.55;102298.22;5092304;28;20080;-76
2023/10/08 04:47:04;;;;;;;13.43;6.35;;;;;;;16.86;64.69;102296.72;5092649;28;20020;-76
2023/10/08 04:49:34;;;;;;;14.23;6.00;;;;;;;16.86;64.56;102301.50;5092482;28;20032;-76
2023/10/08 04:52:18;;;;;;;10.65;5.68;;;;;;;16.85;64.90;102311.84;5093393;28;20387;-76
2023/10/08 04:54:54;;;;;;;12.18;5.50;;;;;;;16.85;65.01;102311.00;5096356;28;20035;-76
2023/10/08 04:57:25;;;;;;;14.98;6.80;;;;;;;16.82;65.13;102315.19;5095086;28;20028;-76
2023/10/08 04:59:51;;;;;;;12.70;6.27;;;;;;;16.84;65.16;102310.16;5111652;28;20059;-76
2023/10/08 05:02:48;;;;;;;11.52;6.20;;;;;;;16.81;65.23;102302.25;5098582;28;20051;-75
2023/10/08 05:15:37;;;;;;;12.07;5.68;;;;;;;16.75;65.74;102320.13;5104051;28;20032;-76
2023/10/08 05:18:13;;;;;;;13.00;6.18;;;;;;;16.77;65.81;102322.66;5109758;28;20099;-76
2023/10/08 05:31:46;;;;;;;12.20;5.68;;;;;;;16.63;65.81;102324.97;5107372;28;20074;-75
2023/10/08 05:39:43;;;;;;;15.07;6.60;;;;;;;16.62;66.14;102352.16;5094885;28;20124;-76
2023/10/08 05:42:20;;;;;;;14.02;6.50;;;;;;;16.65;66.36;102359.19;5111148;28;20027;-75
2023/10/08 05:44:50;;;;;;;12.68;6.68;;;;;;;16.62;66.33;102356.88;5095926;28;20108;-75
2023/10/08 05:55:26;;;;;;;12.25;6.03;;;;;;;16.53;66.46;102331.25;5106196;28;20038;-75
2023/10/08 06:03:32;;;;;;;13.00;6.47;;;;;;;16.49;66.43;102307.66;5108436;28;20032;-76
2023/10/08 06:11:44;;;;;;;12.15;6.15;;;;;;;16.50;66.14;102303.72;5111491;28;20063;-76
2023/10/08 06:14:36;;;;;;;9.93;5.88;;;;;;;16.54;66.22;102304.06;5094706;28;20429;-76
2023/10/08 06:19:49;;;;;;;11.82;6.50;;;;;;;16.47;66.29;102320.25;5075478;28;20391;-76
2023/10/08 06:22:14;;;;;;;11.25;6.07;;;;;;;16.42;66.36;102319.03;5108925;28;20016;-76
2023/10/08 06:24:40;;;;;;;12.90;6.65;;;;;;;16.40;66.42;102320.41;5098845;28;20050;-76
2023/10/08 06:27:06;;;;;;;16.13;6.68;;;;;;;16.44;66.41;102335.59;5093336;28;20045;-76
2023/10/08 06:29:32;;;;;;;13.82;6.03;;;;;;;16.40;66.59;102337.22;5098862;28;20031;-75
2023/10/08 06:32:01;;;;;;;12.38;6.38;;;;;;;16.38;66.69;102340.25;5098050;28;20020;-76
2023/10/08 06:34:31;;;;;;;12.98;6.53;;;;;;;16.40;66.95;102343.69;5089490;28;20024;-76
2023/10/08 06:36:59;;;;;;;18.80;7.43;;;;;;;16.39;67.07;102339.19;5091327;28;20051;-76
2023/10/08 06:39:32;;;;;;;14.50;7.43;;;;;;;16.38;67.09;102337.47;5103452;28;20028;-76
2023/10/08 06:41:58;;;;;;;13.75;7.18;;;;;;;16.37;67.13;102332.97;5097503;28;20122;-77
2023/10/08 06:44:24;;;;;;;11.27;6.82;;;;;;;16.42;67.07;102343.41;5096005;28;20131;-76
2023/10/08 06:46:52;;;;;;;13.52;7.30;;;;;;;16.39;67.30;102347.59;5102610;28;20470;-76
2023/10/08 06:49:18;;;;;;;14.43;7.18;;;;;;;16.36;67.53;102339.69;5101925;28;20108;-76
2023/10/08 06:51:44;;;;;;;18.70;7.28;;;;;;;16.37;67.52;102344.19;5091033;28;20048;-76
2023/10/08 06:54:13;;;;;;;15.02;6.97;;;;;;;16.40;67.37;102352.09;5095800;28;20078;-76
2023/10/08 06:56:39;;;;;;;15.20;7.13;;;;;;;16.43;67.30;102347.94;5092157;28;20054;-74
2023/10/08 06:59:09;;;;;;;15.82;7.90;;;;;;;16.41;67.33;102353.78;5098197;28;20055;-75
2023/10/08 07:01:41;;;;;;;16.02;7.72;;;;;;;16.41;67.33;102359.38;5097253;28;20067;-73
2023/10/08 07:04:11;;;;;;;17.13;7.70;;;;;;;16.44;67.67;102372.03;5101637;28;20059;-74
2023/10/08 07:06:40;;;;;;;14.18;7.30;;;;;;;16.41;67.80;102384.59;5101845;28;20036;-75
2023/10/08 07:09:22;;;;;;;14.23;7.30;;;;;;;16.41;67.66;102376.19;5099719;28;20030;-72
2023/10/08 07:11:49;;;;;;;13.13;7.07;;;;;;;16.42;67.76;102372.28;5104299;28;20035;-73
2023/10/08 07:14:14;;;;;;;15.68;7.55;;;;;;;16.47;67.51;102381.91;5104384;28;20048;-69
2023/10/08 07:16:52;;;;;;;12.82;7.43;;;;;;;16.46;67.68;102389.44;5098126;28;20144;-71
2023/10/08 07:19:18;;;;;;;16.58;8.02;;;;;;;16.50;67.89;102381.38;5100968;28;20487;-70
2023/10/08 07:21:46;;;;;;;13.45;7.32;;;;;;;16.52;67.90;102381.97;5095304;28;20024;-69
2023/10/08 07:24:21;;;;;;;14.35;8.07;;;;;;;16.55;67.98;102384.28;5092087;28;20044;-73
2023/10/08 07:26:49;;;;;;;21.35;8.23;;;;;;;16.55;67.96;102389.88;5096344;28;20032;-72
2023/10/08 07:29:19;;;;;;;18.67;8.65;;;;;;;16.62;67.90;102396.13;5110268;28;20032;-73
2023/10/08 07:31:48;;;;;;;14.93;8.40;;;;;;;16.62;67.79;102383.00;5096911;28;20027;-68
2023/10/08 07:34:15;;;;;;;14.30;7.63;;;;;;;16.64;67.87;102391.13;5104142;28;20032;-71
2023/10/08 07:36:43;;;;;;;22.05;8.68;;;;;;;16.66;67.98;102392.59;5107225;28;20032;-76
2023/10/08 07:42:05;;;;;;;24.23;8.63;;;;;;;16.80;68.00;102404.31;5071520;28;20810;-73
2023/10/08 07:44:31;;;;;;;18.08;8.40;;;;;;;16.79;68.25;102402.63;5096375;28;20019;-74
2023/10/08 07:46:57;;;;;;;15.55;8.27;;;;;;;16.85;67.83;102400.72;5096582;28;20058;-73
2023/10/08 07:49:29;;;;;;;15.90;8.55;;;;;;;16.82;68.14;102390.03;5095405;28;20085;-71
2023/10/08 07:51:55;;;;;;;;;;;;;;;17.01;67.13;102394.22;5090075;28;20028;-75
2023/10/08 07:54:23;;;;;;;16.25;8.77;;;;;;;16.93;67.90;102389.91;5090636;28;19954;-73
2023/10/08 07:56:49;;;;;;;19.77;9.25;;;;;;;16.92;68.34;102401.41;5090087;28;20028;-77
2023/10/08 07:59:16;;;;;;;16.38;9.30;;;;;;;16.93;68.37;102392.72;5091598;28;20428;-74
2023/10/08 08:01:42;;;;;;;20.77;9.20;;;;;;;16.93;68.51;102398.31;5093147;28;20474;-71
2023/10/08 08:04:21;;;;;;;19.27;9.20;;;;;;;16.95;68.51;102395.28;5087704;28;20155;-74
2023/10/08 08:06:49;;;;;;;17.27;9.40;;;;;;;16.97;69.34;102406.22;5102213;28;20393;-75
2023/10/08 08:09:19;;;;;;;16.90;9.45;;;;;;;17.00;69.04;102409.38;5088415;28;20035;-67
2023/10/08 08:11:48;;;;;;;16.92;9.07;;;;;;;17.04;69.19;102418.13;5102546;28;20019;-71
2023/10/08 08:14:24;;;;;;;19.48;10.20;;;;;;;17.01;69.53;102432.66;5093915;28;20058;-73
2023/10/08 08:16:50;;;;;;;16.60;9.60;;;;;;;17.07;69.30;102435.28;5090511;28;20047;-71
2023/10/08 08:19:17;;;;;;;20.38;9.75;;;;;;;17.06;70.00;102432.75;5090456;28;20020;-71
2023/10/08 08:21:46;;;;;;;20.60;11.18;;;;;;;17.07;70.45;102440.06;5100390;28;20050;-71
2023/10/08 08:24:13;;;;;;;20.58;9.88;;;;;;;17.09;70.17;102435.03;5092666;28;20288;-68
2023/10/08 08:27:00;;;;;;;21.67;10.93;;;;;;;17.11;70.38;102446.84;5089682;28;20036;-71
2023/10/08 08:29:29;;;;;;;17.70;9.70;;;;;;;17.12;70.56;102455.00;5088662;28;20044;-71
2023/10/08 08:31:56;;;;;;;19.80;10.15;;;;;;;17.10;70.85;102460.03;5093219;28;20464;-70
2023/10/08 08:34:23;;;;;;;19.08;10.18;;;;;;;17.12;70.90;102465.38;5087625;28;20028;-71
2023/10/08 08:37:00;;;;;;;22.85;11.40;;;;;;;17.10;70.89;102464.78;5090630;28;20557;-71
2023/10/08 08:39:36;;;;;;;22.92;11.93;;;;;;;17.09;70.92;102475.13;5094335;28;20424;-71
2023/10/08 08:42:04;;;;;;;17.55;10.77;;;;;;;17.14;70.69;102471.59;5096690;28;20460;-70
2023/10/08 08:44:31;;;;;;;18.50;11.82;;;;;;;17.13;70.89;102481.09;5094918;28;20036;-70
2023/10/08 08:47:01;;;;;;;22.67;10.63;;;;;;;17.14;70.88;102468.78;5090754;28;20399;-69
2023/10/08 08:49:28;;;;;;;19.77;11.48;;;;;;;17.15;70.58;102476.94;5093492;28;20036;-69
2023/10/08 08:51:56;;;;;;;27.30;11.73;;;;;;;17.16;71.00;102469.34;5097979;28;20573;-69
2023/10/08 08:54:24;;;;;;;26.58;12.32;;;;;;;17.19;70.92;102468.84;5093571;28;20023;-70
2023/10/08 08:56:54;;;;;;;32.97;14.43;;;;;;;17.20;71.19;102467.72;5088992;28;20357;-70
2023/10/08 08:59:20;;;;;;;26.10;11.98;;;;;;;17.23;70.87;102470.03;5090347;28;20024;-70
2023/10/08 09:01:47;;;;;;;25.33;11.95;;;;;;;17.23;71.29;102472.84;5103247;28;20038;-70
2023/10/08 09:04:16;;;;;;;24.20;12.65;;;;;;;17.28;71.31;102472.06;5096837;28;20084;-70
2023/10/08 09:06:42;;;;;;;27.65;14.02;;;;;;;17.29;71.84;102477.44;5089903;28;20198;-72
2023/10/08 09:09:22;;;;;;;35.08;13.90;;;;;;;17.31;71.52;102478.00;5089374;28;20166;-68
2023/10/08 09:11:57;;;;;;;30.17;13.50;;;;;;;17.34;71.45;102477.47;5093021;28;20027;-71
2023/10/08 09:14:31;;;;;;;25.92;14.07;;;;;;;17.32;71.86;102478.84;5093480;28;20032;-71
2023/10/08 09:16:59;;;;;;;26.65;14.60;;;;;;;17.31;71.72;102489.22;5095919;28;20043;-71
2023/10/08 09:19:25;;;;;;;26.23;14.38;;;;;;;17.34;71.75;102488.72;5095024;28;20088;-71
2023/10/08 09:21:59;;;;;;;32.25;15.98;;;;;;;17.35;71.88;102490.41;5097795;28;20028;-72
2023/10/08 09:24:25;;;;;;;29.98;15.35;;;;;;;17.36;72.08;102486.47;5087584;28;20496;-71
2023/10/08 09:26:52;;;;;;;28.58;15.80;;;;;;;17.42;71.96;102487.41;5097288;28;20039;-71
2023/10/08 09:29:17;;;;;;;28.42;15.98;;;;;;;17.43;71.84;102487.16;5094264;28;20502;-75
2023/10/08 09:31:55;;;;;;;28.42;16.52;;;;;;;17.54;71.63;102488.16;5092553;28;20024;-76
2023/10/08 09:34:21;;;;;;;33.38;15.25;;;;;;;17.61;71.59;102482.34;5094437;28;20081;-65
2023/10/08 09:36:46;;;;;;;30.73;15.82;;;;;;;17.72;72.16;102494.53;5095614;28;20036;-76
2023/10/08 09:39:20;;;;;;;32.67;15.82;;;;;;;17.81;71.72;102491.06;5102281;28;20030;-81
2023/10/08 09:41:49;;;;;;;35.45;17.33;;;;;;;17.88;71.42;102494.53;5099953;28;20402;-81
2023/10/08 09:44:15;;;;;;;33.55;17.05;;;;;;;17.93;71.41;102492.88;5102266;28;20469;-81
2023/10/08 09:46:43;;;;;;;31.00;17.33;;;;;;;17.96;71.50;102492.31;5092956;28;20032;-77
2023/10/08 09:49:12;;;;;;;27.77;17.02;;;;;;;17.98;71.61;102485.34;5101968;28;20024;-78
2023/10/08 09:51:39;;;;;;;27.20;18.25;;;;;;;17.99;71.53;102484.22;5100983;28;20394;-77
2023/10/08 09:54:18;;;;;;;26.20;17.15;;;;;;;18.02;71.54;102477.25;5095597;28;20027;-76
2023/10/08 09:56:44;;;;;;;29.42;18.40;;;;;;;17.97;71.41;102477.19;5100472;28;20123;-76
2023/10/08 09:59:10;;;;;;;30.67;17.73;;;;;;;18.00;71.62;102479.44;5099563;28;20032;-78
2023/10/08 10:01:38;;;;;;;34.70;18.85;;;;;;;18.00;71.50;102462.59;5091259;28;20115;-78
2023/10/08 10:04:23;;;;;;;29.25;17.80;;;;;;;18.12;71.98;102455.72;5092457;28;20115;-73
2023/10/08 10:06:49;;;;;;;27.70;17.80;;;;;;;18.28;71.19;102448.28;5097328;28;20475;-72
2023/10/08 10:09:21;;;;;;;29.77;17.55;;;;;;;18.44;70.92;102449.28;5095195;28;20066;-67
2023/10/08 10:11:51;;;;;;;30.88;17.88;;;;;;;18.56;71.13;102454.72;5096093;28;20032;-67
2023/10/08 10:14:20;;;;;;;28.38;17.85;;;;;;;18.62;70.64;102448.88;5097424;28;20544;-75
2023/10/08 10:16:49;;;;;;;25.30;18.60;;;;;;;18.67;70.13;102450.91;5091539;28;20036;-75
2023/10/08 10:19:20;;;;;;;19.52;11.98;;;;;;;18.83;71.16;102454.72;5093907;28;20430;-71
2023/10/08 10:21:47;;;;;;;32.42;18.67;;;;;;;18.82;70.81;102453.88;5094332;28;20027;-75
2023/10/08 10:24:27;;;;;;;38.88;20.15;;;;;;;18.82;70.41;102465.13;5089911;28;20048;-74
2023/10/08 10:27:10;;;;;;;34.28;18.15;;;;;;;18.85;70.77;102464.56;5099629;28;20082;-69
2023/10/08 10:29:35;;;;;;;31.33;19.65;;;;;;;18.84;70.95;102462.88;5092164;28;20746;-68
2023/10/08 10:32:02;;;;;;;32.50;18.88;;;;;;;18.80;71.03;102461.72;5106489;28;20463;-69
2023/10/08 10:34:27;;;;;;;33.15;18.67;;;;;;;18.73;71.39;102444.22;5086744;28;20785;-71
2023/10/08 10:36:56;;;;;;;26.65;14.55;;;;;;;18.81;71.82;102454.13;5089697;28;20047;-75
2023/10/08 10:39:33;;;;;;;31.33;17.38;;;;;;;18.75;71.47;102461.69;5096106;28;20035;-76
2023/10/08 10:42:20;;;;;;;32.35;16.73;;;;;;;18.74;71.51;102465.59;5095445;28;20027;-71
2023/10/08 10:44:49;;;;;;;39.35;19.40;;;;;;;18.63;71.87;102466.63;5093738;28;20032;-73
2023/10/08 10:52:44;;;;;;;37.83;18.65;;;;;;;18.66;72.05;102482.94;5095773;28;20089;-74
2023/10/08 10:57:43;;;;;;;31.45;14.73;;;;;;;18.69;72.65;102459.91;5096490;28;19923;-76
2023/10/08 11:01:23;;;;;;;29.52;14.07;;;;;;;18.71;72.76;102474.59;5092117;28;20056;-71
2023/10/08 11:03:27;;;;;;;27.15;12.65;;;;;;;18.74;72.84;102482.47;5083900;28;20040;-70
2023/10/08 11:06:06;;;;;;;32.25;16.60;;;;;;;18.57;72.67;102470.47;5093947;28;20514;-70
2023/10/08 11:08:34;;;;;;;41.67;18.30;;;;;;;18.48;72.86;102474.91;5093322;28;20040;-73
2023/10/08 11:11:05;;;;;;;44.42;17.75;;;;;;;18.43;73.30;102484.16;5094389;28;20031;-74
2023/10/08 11:13:37;;;;;;;42.33;16.45;;;;;;;18.39;73.33;102472.59;5096517;28;20024;-71
2023/10/08 11:16:04;;;;;;;38.25;16.23;;;;;;;18.37;73.24;102466.38;5088189;28;20032;-71
2023/10/08 11:18:29;;;;;;;33.80;15.82;;;;;;;18.43;73.38;102472.91;5088866;28;20077;-71
2023/10/08 11:21:15;;;;;;;27.33;14.63;;;;;;;18.44;72.74;102476.56;5088267;28;20036;-74
2023/10/08 11:23:43;;;;;;;26.45;12.57;;;;;;;18.41;73.39;102480.75;5089146;28;20082;-74
2023/10/08 11:26:09;;;;;;;34.30;14.52;;;;;;;18.42;73.20;102476.81;5097655;28;20047;-76
2023/10/08 11:28:41;;;;;;;28.45;14.98;;;;;;;18.43;73.24;102483.28;5093275;28;21860;-70
2023/10/08 11:31:10;;;;;;;29.17;14.25;;;;;;;18.35;73.00;102488.28;5089133;28;21823;-77
2023/10/08 11:33:37;;;;;;;27.75;12.98;;;;;;;18.43;73.31;102474.84;5092386;28;20024;-72
2023/10/08 11:36:11;;;;;;;29.15;13.57;;;;;;;18.43;73.19;102477.66;5090689;28;20055;-69
2023/10/08 11:38:40;;;;;;;24.73;14.57;;;;;;;18.36;73.02;102472.28;5099194;28;20444;-71
2023/10/08 11:41:13;;;;;;;26.02;14.60;;;;;;;18.33;73.24;102467.16;5101598;28;20075;-74
2023/10/08 11:43:39;;;;;;;26.88;13.90;;;;;;;18.44;74.10;102468.97;5111239;28;20023;-80
2023/10/08 11:46:10;;;;;;;23.17;13.40;;;;;;;18.49;73.49;102470.97;5094918;28;20471;-76
2023/10/08 11:48:38;;;;;;;28.50;15.95;;;;;;;18.42;72.83;102464.72;5096647;28;20111;-69
2023/10/08 11:51:05;;;;;;;29.77;14.93;;;;;;;18.45;73.21;102461.38;5090012;28;20078;-78
2023/10/08 11:53:31;;;;;;;28.90;16.58;;;;;;;18.41;73.11;102461.06;5088021;28;20332;-72
2023/10/08 11:55:57;;;;;;;22.65;11.93;;;;;;;18.49;73.34;102457.75;5096624;28;20031;-74
2023/10/08 11:58:37;;;;;;;26.23;14.68;;;;;;;18.53;73.20;102460.88;5094190;28;20032;-74
2023/10/08 12:01:03;;;;;;;23.80;13.88;;;;;;;18.55;72.51;102456.69;5104476;28;20039;-73
2023/10/08 12:03:29;;;;;;;20.10;13.30;;;;;;;18.55;72.71;102444.56;5102505;28;20036;-70
2023/10/08 12:06:00;;;;;;;19.67;13.10;;;;;;;18.54;72.45;102445.69;5093248;28;20032;-70
2023/10/08 12:08:27;;;;;;;21.95;12.57;;;;;;;18.59;72.80;102441.00;5103474;28;20063;-68
2023/10/08 12:10:54;;;;;;;24.60;13.35;;;;;;;18.55;72.13;102441.75;5096304;28;20036;-70
2023/10/08 12:13:25;;;;;;;23.35;12.02;;;;;;;18.60;72.26;102441.84;5103909;28;20092;-69
2023/10/08 12:16:06;;;;;;;22.83;13.80;;;;;;;18.49;71.92;102435.25;5100971;28;20482;-71
2023/10/08 12:18:39;;;;;;;23.00;10.90;;;;;;;18.55;72.15;102436.16;5098009;28;20038;-71
2023/10/08 12:21:10;;;;;;;24.27;13.23;;;;;;;18.50;71.82;102430.50;5093566;28;20500;-72
2023/10/08 12:23:39;;;;;;;21.20;13.60;;;;;;;18.45;71.52;102422.00;5102770;28;20137;-75
2023/10/08 12:26:07;;;;;;;20.30;12.93;;;;;;;18.40;71.66;102434.91;5105852;28;20482;-72
2023/10/08 12:28:34;;;;;;;23.10;12.20;;;;;;;18.37;71.89;102429.81;5093767;28;20043;-73
2023/10/08 12:31:00;;;;;;;22.80;12.90;;;;;;;18.31;71.99;102430.03;5093486;28;20028;-70